createdAt,value
2022-08-31T00:02:09.791Z,6.75
2022-08-31T00:04:36.861Z,6.03
2022-08-31T00:07:04.180Z,6.68
2022-08-31T00:09:32.928Z,4.30
2022-08-31T00:12:00.369Z,8.15
2022-08-31T00:14:27.189Z,7.10
2022-08-31T00:16:53.911Z,5.10
2022-08-31T00:19:20.643Z,5.22
2022-08-31T00:21:47.476Z,8.50
2022-08-31T00:24:14.580Z,6.20
2022-08-31T00:26:42.188Z,8.57
2022-08-31T00:29:09.506Z,7.15
2022-08-31T00:31:36.429Z,9.32
2022-08-31T00:34:03.982Z,5.90
2022-08-31T00:36:30.711Z,6.15
2022-08-31T00:38:57.945Z,8.80
2022-08-31T00:41:27.887Z,6.45
2022-08-31T00:44:03.718Z,5.32
2022-08-31T00:46:32.944Z,8.10
2022-08-31T00:49:04.590Z,6.65
2022-08-31T00:51:34.172Z,6.32
2022-08-31T00:54:00.972Z,5.13
2022-08-31T00:56:27.817Z,5.70
2022-08-31T00:58:55.114Z,5.43
2022-08-31T01:01:22.752Z,7.07
2022-08-31T01:03:49.989Z,6.65
2022-08-31T01:06:17.557Z,6.22
2022-08-31T01:08:45.483Z,6.38
2022-08-31T01:11:13.377Z,7.97
2022-08-31T01:13:40.556Z,13.00
2022-08-31T01:16:11.235Z,7.18
2022-08-31T01:18:39.015Z,6.35
2022-08-31T01:21:13.909Z,7.50
2022-08-31T01:23:43.565Z,5.90
2022-08-31T01:26:15.397Z,7.38
2022-08-31T01:28:42.166Z,7.43
2022-08-31T01:31:33.109Z,7.45
2022-08-31T01:34:01.313Z,8.70
2022-08-31T01:36:28.520Z,6.95
2022-08-31T01:38:56.357Z,7.60
2022-08-31T01:41:23.438Z,8.55
2022-08-31T01:43:50.795Z,9.80
2022-08-31T01:46:17.533Z,9.52
2022-08-31T01:48:45.629Z,8.15
2022-08-31T01:51:14.200Z,8.30
2022-08-31T01:53:45.281Z,12.50
2022-08-31T01:56:14.410Z,9.70
2022-08-31T01:58:41.431Z,8.35
2022-08-31T02:01:38.783Z,7.55
2022-08-31T02:04:06.920Z,7.82
2022-08-31T02:06:34.204Z,7.18
2022-08-31T02:09:07.035Z,8.40
2022-08-31T02:11:33.782Z,9.15
2022-08-31T02:14:00.633Z,14.30
2022-08-31T02:16:27.661Z,8.85
2022-08-31T02:18:54.516Z,8.05
2022-08-31T02:21:21.344Z,9.30
2022-08-31T02:23:48.182Z,9.60
2022-08-31T02:26:15.489Z,8.65
2022-08-31T02:28:45.519Z,11.18
2022-08-31T02:31:12.579Z,10.43
2022-08-31T02:33:46.901Z,10.10
2022-08-31T02:36:13.689Z,9.57
2022-08-31T02:38:41.895Z,11.48
2022-08-31T02:41:09.807Z,7.95
2022-08-31T02:43:38.901Z,10.25
2022-08-31T02:46:05.774Z,10.70
2022-08-31T02:48:38.568Z,7.95
2022-08-31T02:51:07.820Z,10.48
2022-08-31T02:53:35.084Z,10.07
2022-08-31T02:56:02.072Z,8.60
2022-08-31T02:58:29.355Z,9.13
2022-08-31T03:00:56.198Z,8.13
2022-08-31T03:03:23.449Z,8.63
2022-08-31T03:05:50.475Z,10.00
2022-08-31T03:08:17.913Z,9.80
2022-08-31T03:10:47.484Z,10.88
2022-08-31T03:13:14.501Z,9.20
2022-08-31T03:15:43.030Z,8.27
2022-08-31T03:18:10.371Z,10.05
2022-08-31T03:20:37.152Z,11.70
2022-08-31T03:23:05.323Z,9.23
2022-08-31T03:25:32.681Z,9.68
2022-08-31T03:27:59.805Z,10.32
2022-08-31T03:30:31.402Z,10.52
2022-08-31T03:33:03.111Z,10.07
2022-08-31T03:35:32.077Z,8.02
2022-08-31T03:37:58.986Z,8.98
2022-08-31T03:40:25.753Z,8.38
2022-08-31T03:42:53.051Z,10.35
2022-08-31T03:45:20.252Z,7.63
2022-08-31T03:47:47.390Z,9.82
2022-08-31T03:50:16.280Z,14.20
2022-08-31T03:52:57.231Z,7.63
2022-08-31T03:55:23.985Z,8.73
2022-08-31T03:57:51.570Z,10.77
2022-08-31T04:00:18.983Z,7.97
2022-08-31T04:02:52.893Z,11.52
2022-08-31T04:05:35.678Z,9.90
2022-08-31T04:08:14.756Z,8.88
2022-08-31T04:11:00.043Z,9.07
2022-08-31T04:13:33.101Z,11.35
2022-08-31T04:16:20.909Z,8.13
2022-08-31T04:19:11.581Z,9.00
2022-08-31T04:21:47.694Z,10.98
2022-08-31T04:24:14.457Z,7.95
2022-08-31T04:26:41.736Z,9.68
2022-08-31T04:29:13.093Z,14.57
2022-08-31T04:31:40.628Z,9.48
2022-08-31T04:34:08.267Z,13.45
2022-08-31T04:36:35.714Z,10.35
2022-08-31T04:39:03.871Z,8.55
2022-08-31T04:41:32.352Z,8.45
2022-08-31T04:44:00.737Z,12.50
2022-08-31T04:46:27.941Z,12.60
2022-08-31T04:48:55.916Z,8.02
2022-08-31T04:51:25.987Z,11.13
2022-08-31T04:53:53.118Z,8.88
2022-08-31T04:56:40.925Z,13.57
2022-08-31T04:59:09.282Z,10.60
2022-08-31T05:01:45.406Z,11.95
2022-08-31T05:04:36.585Z,12.45
2022-08-31T05:07:03.859Z,9.00
2022-08-31T05:09:31.099Z,9.38
2022-08-31T05:11:57.927Z,10.63
2022-08-31T05:14:25.854Z,9.10
2022-08-31T05:17:01.359Z,9.30
2022-08-31T05:19:32.110Z,11.48
2022-08-31T05:21:59.240Z,11.75
2022-08-31T05:24:26.327Z,10.88
2022-08-31T05:26:56.380Z,10.30
2022-08-31T05:29:25.131Z,12.88
2022-08-31T05:32:03.985Z,9.25
2022-08-31T05:34:31.843Z,10.93
2022-08-31T05:36:58.672Z,10.80
2022-08-31T05:39:30.863Z,14.73
2022-08-31T05:41:57.609Z,14.00
2022-08-31T05:44:26.094Z,10.25
2022-08-31T05:46:57.398Z,13.65
2022-08-31T05:49:27.909Z,9.50
2022-08-31T05:51:56.550Z,13.27
2022-08-31T05:54:23.444Z,9.18
2022-08-31T05:56:50.160Z,15.88
2022-08-31T05:59:16.958Z,13.10
2022-08-31T06:01:44.590Z,14.90
2022-08-31T06:04:14.851Z,12.02
2022-08-31T06:06:43.529Z,11.45
2022-08-31T06:09:13.245Z,12.68
2022-08-31T06:11:42.365Z,11.55
2022-08-31T06:14:12.504Z,12.82
2022-08-31T06:16:40.111Z,11.57
2022-08-31T06:19:07.896Z,15.23
2022-08-31T06:21:49.793Z,10.82
2022-08-31T06:24:20.641Z,15.73
2022-08-31T06:26:58.389Z,9.13
2022-08-31T06:29:31.698Z,9.88
2022-08-31T06:32:00.500Z,13.93
2022-08-31T06:34:29.370Z,10.57
2022-08-31T06:37:05.747Z,10.18
2022-08-31T06:39:53.864Z,11.82
2022-08-31T06:42:40.877Z,10.18
2022-08-31T06:45:27.931Z,12.05
2022-08-31T06:48:03.541Z,10.43
2022-08-31T06:50:30.309Z,10.65
2022-08-31T06:52:58.358Z,10.00
2022-08-31T06:55:46.027Z,7.75
2022-08-31T06:58:31.595Z,12.35
2022-08-31T07:01:35.734Z,12.27
2022-08-31T07:04:11.611Z,9.85
2022-08-31T07:06:42.750Z,8.20
2022-08-31T07:09:13.728Z,6.88
2022-08-31T07:11:44.769Z,14.07
2022-08-31T07:14:14.980Z,8.85
2022-08-31T07:16:43.424Z,10.20
2022-08-31T07:19:11.919Z,9.50
2022-08-31T07:21:45.234Z,5.80
2022-08-31T07:24:14.718Z,10.88
2022-08-31T07:26:46.695Z,10.02
2022-08-31T07:29:18.304Z,9.82
2022-08-31T07:31:48.499Z,8.13
2022-08-31T07:34:27.215Z,8.50
2022-08-31T07:37:32.983Z,7.07
2022-08-31T07:40:18.662Z,8.27
2022-08-31T07:42:47.083Z,7.57
2022-08-31T07:45:23.187Z,11.65
2022-08-31T07:47:53.224Z,9.65
2022-08-31T07:50:22.736Z,10.07
2022-08-31T07:53:08.668Z,9.30
2022-08-31T07:55:56.866Z,8.02
2022-08-31T07:58:31.225Z,8.00
2022-08-31T08:01:00.549Z,8.90
2022-08-31T08:03:30.092Z,8.32
2022-08-31T08:06:17.659Z,7.55
2022-08-31T08:09:24.005Z,5.90
2022-08-31T08:12:25.251Z,8.20
2022-08-31T08:15:06.644Z,6.47
2022-08-31T08:17:52.231Z,5.60
2022-08-31T08:20:35.358Z,8.33
2022-08-31T08:23:11.491Z,11.75
2022-08-31T08:26:09.607Z,7.60
2022-08-31T08:29:18.877Z,10.45
2022-08-31T08:31:53.056Z,7.78
2022-08-31T08:34:21.860Z,8.05
2022-08-31T08:36:58.369Z,6.40
2022-08-31T08:39:25.127Z,8.25
2022-08-31T08:42:12.576Z,9.23
2022-08-31T08:44:40.334Z,5.80
2022-08-31T08:47:15.242Z,6.25
2022-08-31T08:49:54.216Z,15.77
2022-08-31T08:52:44.435Z,6.18
2022-08-31T08:55:18.368Z,10.13
2022-08-31T08:57:49.588Z,7.30
2022-08-31T09:00:20.068Z,8.90
2022-08-31T09:03:01.255Z,7.35
2022-08-31T09:06:08.044Z,8.20
2022-08-31T09:08:54.835Z,9.68
2022-08-31T09:11:53.260Z,9.00
2022-08-31T09:14:24.578Z,7.90
2022-08-31T09:17:01.856Z,11.88
2022-08-31T09:19:28.826Z,8.90
2022-08-31T09:21:58.084Z,10.77
2022-08-31T09:24:30.377Z,8.23
2022-08-31T09:27:20.319Z,7.63
2022-08-31T09:29:56.058Z,8.52
2022-08-31T09:32:29.134Z,11.13
2022-08-31T09:35:01.814Z,9.15
2022-08-31T09:37:45.078Z,9.15
2022-08-31T09:40:23.829Z,14.73
2022-08-31T09:43:05.005Z,8.20
2022-08-31T09:45:38.739Z,8.90
2022-08-31T09:48:09.227Z,14.82
2022-08-31T09:50:46.317Z,10.18
2022-08-31T09:53:34.685Z,7.53
2022-08-31T09:56:16.870Z,12.10
2022-08-31T09:58:49.130Z,9.38
2022-08-31T10:01:23.341Z,9.60
2022-08-31T10:03:50.495Z,14.57
2022-08-31T10:06:26.167Z,8.65
2022-08-31T10:09:02.809Z,8.15
2022-08-31T10:11:31.620Z,9.68
2022-08-31T10:14:06.319Z,11.68
2022-08-31T10:16:35.672Z,14.10
2022-08-31T10:19:06.624Z,12.00
2022-08-31T10:21:53.561Z,8.73
2022-08-31T10:24:34.683Z,8.40
2022-08-31T10:27:18.904Z,6.85
2022-08-31T10:29:53.066Z,9.95
2022-08-31T10:32:45.281Z,11.27
2022-08-31T10:35:22.937Z,10.48
2022-08-31T10:38:08.217Z,11.55
2022-08-31T10:41:12.521Z,10.75
2022-08-31T10:44:06.303Z,9.00
2022-08-31T10:46:35.660Z,9.60
2022-08-31T10:49:04.525Z,7.90
2022-08-31T10:51:53.249Z,8.63
2022-08-31T10:54:41.225Z,9.88
2022-08-31T10:57:31.427Z,13.27
2022-08-31T11:00:37.928Z,14.50
2022-08-31T11:03:07.493Z,9.27
2022-08-31T11:05:37.980Z,9.60
2022-08-31T11:08:12.342Z,15.15
2022-08-31T11:10:49.164Z,8.88
2022-08-31T11:13:36.296Z,17.48
2022-08-31T11:16:21.340Z,8.75
2022-08-31T11:18:52.006Z,9.40
2022-08-31T11:21:45.575Z,13.65
2022-08-31T11:25:01.060Z,7.78
2022-08-31T11:27:37.051Z,12.52
2022-08-31T11:30:16.466Z,9.10
2022-08-31T11:32:52.533Z,10.43
2022-08-31T11:36:05.477Z,10.30
2022-08-31T11:39:01.810Z,9.55
2022-08-31T11:41:31.351Z,11.15
2022-08-31T11:43:58.476Z,11.05
2022-08-31T11:46:28.754Z,10.70
2022-08-31T11:48:55.484Z,14.52
2022-08-31T11:51:46.233Z,13.50
2022-08-31T11:54:56.671Z,13.23
2022-08-31T11:57:36.914Z,16.45
2022-08-31T12:00:18.881Z,13.30
2022-08-31T12:02:45.865Z,13.63
2022-08-31T12:05:13.062Z,12.88
2022-08-31T12:07:45.042Z,9.95
2022-08-31T12:10:27.809Z,11.73
2022-08-31T12:13:09.462Z,9.65
2022-08-31T12:16:15.060Z,14.97
2022-08-31T12:18:57.947Z,10.80
2022-08-31T12:21:53.337Z,10.57
2022-08-31T12:24:49.261Z,11.85
2022-08-31T12:27:44.187Z,8.68
2022-08-31T12:30:18.934Z,8.13
2022-08-31T12:32:46.581Z,9.65
2022-08-31T12:35:28.261Z,9.07
2022-08-31T12:38:19.133Z,8.18
2022-08-31T12:40:51.581Z,7.40
2022-08-31T12:43:22.041Z,14.18
2022-08-31T12:45:58.571Z,18.20
2022-08-31T12:48:47.168Z,11.20
2022-08-31T12:51:35.547Z,11.15
2022-08-31T12:54:17.642Z,10.68
2022-08-31T12:56:57.850Z,12.00
2022-08-31T12:59:59.822Z,8.27
2022-08-31T13:02:28.166Z,8.50
2022-08-31T13:04:55.018Z,8.65
2022-08-31T13:07:28.910Z,7.75
2022-08-31T13:10:29.517Z,13.45
2022-08-31T13:13:00.768Z,9.43
2022-08-31T13:15:36.174Z,10.27
2022-08-31T13:18:14.651Z,9.63
2022-08-31T13:20:44.220Z,10.13
2022-08-31T13:23:22.272Z,8.32
2022-08-31T13:26:25.923Z,8.85
2022-08-31T13:29:00.524Z,9.52
2022-08-31T13:31:30.707Z,11.57
2022-08-31T13:34:03.022Z,7.28
2022-08-31T13:39:24.284Z,11.10
2022-08-31T13:42:10.836Z,8.65
2022-08-31T13:44:45.061Z,10.40
2022-08-31T13:47:21.436Z,8.68
2022-08-31T13:49:49.203Z,7.53
2022-08-31T13:52:36.340Z,8.07
2022-08-31T13:55:13.428Z,9.80
2022-08-31T13:57:41.744Z,10.93
2022-08-31T14:00:32.989Z,10.82
2022-08-31T14:03:29.776Z,6.03
2022-08-31T14:05:58.969Z,8.73
2022-08-31T14:08:28.384Z,8.18
2022-08-31T14:10:55.919Z,6.55
2022-08-31T14:13:27.972Z,7.88
2022-08-31T14:15:56.718Z,7.97
2022-08-31T14:18:55.384Z,9.98
2022-08-31T14:21:29.055Z,9.70
2022-08-31T14:24:04.694Z,9.95
2022-08-31T14:26:37.136Z,9.52
2022-08-31T14:29:12.470Z,7.50
2022-08-31T14:31:52.926Z,8.70
2022-08-31T14:34:35.784Z,8.27
2022-08-31T14:37:06.948Z,6.45
2022-08-31T14:39:38.325Z,8.47
2022-08-31T14:42:07.896Z,11.53
2022-08-31T14:44:42.475Z,7.97
2022-08-31T14:47:09.860Z,7.07
2022-08-31T14:49:37.069Z,6.00
2022-08-31T14:52:06.434Z,5.68
2022-08-31T14:54:37.481Z,9.10
2022-08-31T14:57:31.335Z,9.38
2022-08-31T15:00:02.171Z,5.93
2022-08-31T15:02:33.615Z,10.88
2022-08-31T15:05:06.422Z,10.38
2022-08-31T15:07:35.712Z,11.70
2022-08-31T15:10:04.224Z,11.25
2022-08-31T15:12:30.913Z,8.05
2022-08-31T15:15:00.503Z,5.90
2022-08-31T15:17:29.672Z,11.00
2022-08-31T15:19:57.514Z,13.90
2022-08-31T15:22:26.364Z,10.40
2022-08-31T15:24:54.191Z,10.55
2022-08-31T15:27:22.517Z,18.20
2022-08-31T15:29:51.830Z,13.80
2022-08-31T15:32:18.686Z,9.27
2022-08-31T15:34:57.820Z,11.77
2022-08-31T15:37:31.735Z,8.93
2022-08-31T15:40:02.085Z,6.15
2022-08-31T15:42:31.492Z,7.00
2022-08-31T15:44:58.369Z,8.38
2022-08-31T15:47:51.676Z,8.45
2022-08-31T15:50:20.305Z,10.00
2022-08-31T15:52:51.692Z,6.13
2022-08-31T15:55:21.853Z,8.30
2022-08-31T15:57:48.793Z,8.63
2022-08-31T16:00:15.992Z,7.47
2022-08-31T16:02:43.961Z,7.63
2022-08-31T16:05:11.982Z,6.80
2022-08-31T16:07:39.796Z,7.93
2022-08-31T16:10:16.703Z,7.57
2022-08-31T16:12:46.226Z,5.95
2022-08-31T16:15:15.683Z,5.63
2022-08-31T16:17:42.666Z,5.45
2022-08-31T16:20:12.135Z,8.93
2022-08-31T16:22:39.260Z,8.60
2022-08-31T16:25:07.093Z,10.00
2022-08-31T16:27:34.235Z,6.30
2022-08-31T16:30:01.127Z,9.70
2022-08-31T16:32:27.991Z,5.72
2022-08-31T16:34:56.659Z,8.60
2022-08-31T16:37:24.001Z,6.22
2022-08-31T16:39:50.895Z,7.65
2022-08-31T16:42:18.126Z,7.55
2022-08-31T16:44:46.921Z,6.25
2022-08-31T16:47:16.784Z,9.65
2022-08-31T16:49:44.228Z,9.50
2022-08-31T16:52:18.248Z,7.63
2022-08-31T16:54:51.164Z,5.18
2022-08-31T16:57:20.923Z,9.50
2022-08-31T16:59:48.893Z,6.65
2022-08-31T17:02:16.906Z,11.00
2022-08-31T17:04:53.364Z,12.05
2022-08-31T17:07:21.830Z,6.55
2022-08-31T17:09:49.214Z,8.20
2022-08-31T17:12:19.486Z,7.93
2022-08-31T17:14:51.498Z,9.85
2022-08-31T17:17:23.261Z,6.95
2022-08-31T17:19:52.278Z,9.15
2022-08-31T17:22:25.796Z,7.25
2022-08-31T17:24:57.849Z,7.30
2022-08-31T17:27:25.974Z,6.70
2022-08-31T17:29:55.386Z,8.30
2022-08-31T17:32:24.765Z,7.18
2022-08-31T17:34:54.610Z,8.38
2022-08-31T17:37:26.631Z,8.93
2022-08-31T17:39:54.074Z,9.75
2022-08-31T17:42:22.501Z,8.00
2022-08-31T17:44:53.171Z,9.35
2022-08-31T17:47:22.185Z,10.98
2022-08-31T17:49:51.164Z,10.90
2022-08-31T17:52:20.732Z,12.18
2022-08-31T17:54:47.745Z,8.25
2022-08-31T17:57:15.848Z,12.20
2022-08-31T17:59:46.712Z,14.43
2022-08-31T18:02:16.874Z,13.88
2022-08-31T18:04:43.874Z,8.45
2022-08-31T18:07:11.238Z,9.43
2022-08-31T18:09:42.862Z,13.68
2022-08-31T18:12:10.016Z,13.50
2022-08-31T18:14:38.546Z,12.25
2022-08-31T18:17:08.837Z,13.18
2022-08-31T18:19:36.705Z,10.95
2022-08-31T18:22:03.939Z,14.63
2022-08-31T18:24:36.627Z,11.07
2022-08-31T18:29:34.309Z,13.52
2022-08-31T18:32:04.381Z,14.55
2022-08-31T18:34:39.148Z,14.40
2022-08-31T18:37:06.698Z,12.70
2022-08-31T18:39:59.690Z,13.07
2022-08-31T18:42:46.783Z,14.38
2022-08-31T18:45:16.951Z,12.27
2022-08-31T18:48:13.480Z,12.70
2022-08-31T18:50:37.259Z,12.80
2022-08-31T18:53:08.118Z,12.15
2022-08-31T18:55:41.067Z,14.48
2022-08-31T18:58:07.912Z,14.77
2022-08-31T19:00:34.850Z,12.70
2022-08-31T19:03:02.665Z,13.13
2022-08-31T19:05:31.641Z,11.63
2022-08-31T19:08:00.628Z,12.38
2022-08-31T19:10:28.178Z,13.77
2022-08-31T19:12:56.025Z,12.10
2022-08-31T19:15:25.431Z,16.30
2022-08-31T19:18:01.997Z,15.02
2022-08-31T19:20:29.365Z,15.07
2022-08-31T19:22:56.434Z,17.83
2022-08-31T19:25:23.485Z,14.07
2022-08-31T19:27:52.085Z,13.30
2022-08-31T19:30:25.996Z,13.57
2022-08-31T19:32:56.357Z,15.63
2022-08-31T19:35:25.912Z,15.88
2022-08-31T19:37:53.845Z,15.25
2022-08-31T19:40:21.437Z,18.02
2022-08-31T19:45:44.971Z,14.52
2022-08-31T19:48:12.500Z,17.58
2022-08-31T19:50:42.369Z,16.20
2022-08-31T19:53:12.736Z,15.55
2022-08-31T19:55:53.624Z,17.65
2022-08-31T19:58:26.634Z,14.68
2022-08-31T20:01:00.807Z,15.20
2022-08-31T20:03:28.408Z,15.20
2022-08-31T20:05:55.761Z,16.20
2022-08-31T20:08:22.532Z,13.75
2022-08-31T20:10:49.530Z,18.73
2022-08-31T20:13:16.345Z,13.55
2022-08-31T20:15:44.813Z,12.20
2022-08-31T20:18:12.898Z,13.18
2022-08-31T20:20:45.325Z,13.15
2022-08-31T20:25:45.969Z,15.00
2022-08-31T20:28:13.393Z,17.30
2022-08-31T20:30:41.476Z,17.63
2022-08-31T20:33:09.773Z,20.45
2022-08-31T20:35:41.630Z,16.67
2022-08-31T20:38:13.304Z,15.02
2022-08-31T20:40:41.632Z,17.25
2022-08-31T20:43:10.874Z,14.98
2022-08-31T20:45:38.814Z,16.25
2022-08-31T20:48:24.700Z,19.30
2022-08-31T20:50:51.435Z,15.38
2022-08-31T20:53:24.840Z,16.80
2022-08-31T20:56:06.980Z,15.88
2022-08-31T20:58:33.706Z,16.80
2022-08-31T21:01:05.524Z,16.75
2022-08-31T21:03:32.196Z,17.60
2022-08-31T21:06:08.771Z,19.55
2022-08-31T21:08:38.335Z,17.50
2022-08-31T21:11:12.952Z,18.38
2022-08-31T21:13:39.745Z,16.00
2022-08-31T21:16:06.861Z,20.85
2022-08-31T21:18:34.912Z,17.05
2022-08-31T21:21:08.451Z,15.18
2022-08-31T21:23:36.872Z,18.10
2022-08-31T21:26:05.026Z,17.27
2022-08-31T21:28:31.834Z,16.73
2022-08-31T21:31:15.753Z,15.48
2022-08-31T21:33:46.407Z,16.17
2022-08-31T21:36:15.679Z,16.20
2022-08-31T21:38:43.128Z,16.25
2022-08-31T21:41:11.506Z,17.50
2022-08-31T21:43:39.083Z,16.88
2022-08-31T21:46:07.057Z,18.90
2022-08-31T21:48:35.185Z,16.48
2022-08-31T21:51:21.502Z,14.57
2022-08-31T21:53:51.800Z,14.55
2022-08-31T21:56:20.171Z,16.13
2022-08-31T21:58:47.905Z,14.38
2022-08-31T22:01:18.562Z,17.17
2022-08-31T22:03:49.521Z,15.82
2022-08-31T22:06:22.336Z,14.38
2022-08-31T22:09:02.069Z,17.70
2022-08-31T22:11:32.217Z,16.92
2022-08-31T22:13:59.491Z,13.60
2022-08-31T22:16:27.815Z,16.27
2022-08-31T22:19:01.772Z,16.98
2022-08-31T22:21:32.252Z,12.95
2022-08-31T22:24:04.417Z,14.75
2022-08-31T22:26:34.539Z,17.83
2022-08-31T22:29:01.311Z,13.93
2022-08-31T22:31:28.225Z,17.17
2022-08-31T22:33:55.035Z,13.43
2022-08-31T22:36:31.449Z,14.07
2022-08-31T22:39:12.871Z,16.25
2022-08-31T22:41:41.492Z,14.45
2022-08-31T22:44:16.368Z,14.35
2022-08-31T22:46:43.526Z,16.17
2022-08-31T22:49:11.142Z,14.10
2022-08-31T22:51:40.857Z,16.60
2022-08-31T22:56:39.046Z,16.17
2022-08-31T22:59:09.873Z,15.77
2022-08-31T23:01:42.256Z,14.35
2022-08-31T23:06:38.008Z,13.82
2022-08-31T23:09:10.618Z,14.45
2022-08-31T23:11:38.469Z,13.40
2022-08-31T23:14:10.235Z,21.13
2022-08-31T23:16:40.409Z,14.30
2022-08-31T23:19:20.178Z,14.55
2022-08-31T23:21:53.034Z,15.00
2022-08-31T23:24:28.738Z,18.35
2022-08-31T23:27:04.135Z,17.80
2022-08-31T23:29:45.752Z,16.75
2022-08-31T23:32:13.482Z,15.43
2022-08-31T23:34:41.983Z,15.88
2022-08-31T23:37:10.510Z,18.50
2022-08-31T23:39:40.477Z,17.10
2022-08-31T23:42:07.645Z,13.55
2022-08-31T23:44:36.224Z,14.30
2022-08-31T23:47:03.053Z,16.77
2022-08-31T23:49:29.858Z,16.67
2022-08-31T23:51:56.572Z,17.52
2022-08-31T23:54:23.370Z,13.95
2022-08-31T23:56:52.337Z,17.30
2022-08-31T23:59:19.949Z,15.88
